Time;durP1;ratioP1;P1;durP2;ratioP2;P2;SDS_P1;SDS_P2;PMS_P1;PMS_P2;Temp;Humidity;BMP_temperature;BMP_pressure;BME280_temperature;BME280_humidity;BME280_pressure;Samples;Min_cycle;Max_cycle;Signal;HPM_P1;HPM_P2
2021/08/18 01:09:31;;;;;;;19.23;8.20;;;13.70;98.30;;;;;;4755515;24;20826;-82
2021/08/18 01:11:39;;;;;;;22.83;8.83;;;13.70;98.30;;;;;;4901055;24;20464;-82
2021/08/18 01:13:44;;;;;;;15.17;9.33;;;13.70;98.30;;;;;;4972616;24;20428;-83
2021/08/18 01:15:50;;;;;;;20.80;8.53;;;13.70;98.30;;;;;;4975185;24;20432;-83
2021/08/18 01:17:56;;;;;;;18.27;8.57;;;13.70;98.30;;;;;;4950947;24;20463;-83
2021/08/18 01:20:01;;;;;;;16.63;8.30;;;13.70;98.30;;;;;;4974192;24;20492;-84
2021/08/18 01:22:07;;;;;;;17.93;8.90;;;13.70;98.30;;;;;;5000483;23;20518;-83
2021/08/18 01:24:12;;;;;;;18.33;9.17;;;13.80;98.30;;;;;;5093550;23;20428;-84
2021/08/18 01:26:21;;;;;;;14.07;8.27;;;13.80;98.30;;;;;;5081930;23;20465;-84
2021/08/18 01:28:44;;;;;;;17.37;8.67;;;13.80;98.30;;;;;;5067235;23;20798;-82
2021/08/18 01:30:56;;;;;;;16.50;9.03;;;13.80;98.30;;;;;;5069746;23;20764;-82
2021/08/18 01:35:34;;;;;;;18.03;9.63;;;13.80;98.30;;;;;;5155634;23;21087;-82
2021/08/18 01:37:45;;;;;;;15.80;8.17;;;13.80;98.30;;;;;;5155113;23;20417;-83
2021/08/18 01:39:51;;;;;;;13.80;8.03;;;13.80;98.30;;;;;;5130602;23;20413;-82
2021/08/18 01:42:02;;;;;;;17.00;8.83;;;13.80;98.30;;;;;;5154825;23;20452;-84
2021/08/18 01:44:08;;;;;;;16.60;8.93;;;13.80;98.30;;;;;;5146117;23;20427;-83
2021/08/18 01:46:14;;;;;;;17.43;9.40;;;13.80;98.30;;;;;;5154330;23;20428;-84
2021/08/18 01:48:23;;;;;;;20.20;9.20;;;13.80;98.30;;;;;;5155432;23;20510;-83
2021/08/18 01:50:29;;;;;;;22.30;9.10;;;13.80;98.30;;;;;;5154703;23;20425;-82
2021/08/18 01:52:39;;;;;;;16.07;8.40;;;13.80;98.30;;;;;;5153840;23;20421;-82
2021/08/18 01:57:30;;;;;;;16.63;8.97;;;13.80;98.30;;;;;;5145325;23;20455;-82
2021/08/18 01:59:51;;;;;;;15.60;9.07;;;13.80;98.30;;;;;;5145654;23;20897;-82
2021/08/18 02:01:55;;;;;;;17.13;9.07;;;13.80;98.30;;;;;;5152819;23;20539;-82
2021/08/18 02:03:59;;;;;;;16.10;8.97;;;13.80;98.30;;;;;;5153857;23;20425;-82
2021/08/18 02:06:06;;;;;;;15.17;8.53;;;13.80;98.30;;;;;;5154262;23;21000;-82
2021/08/18 02:08:10;;;;;;;17.50;8.60;;;13.80;98.30;;;;;;5153955;23;20448;-82
2021/08/18 02:10:17;;;;;;;16.07;9.73;;;13.80;98.30;;;;;;5153856;23;20425;-82
2021/08/18 02:12:21;;;;;;;17.03;10.67;;;13.80;98.30;;;;;;5153432;23;20531;-82
2021/08/18 02:14:25;;;;;;;17.67;8.17;;;13.90;98.30;;;;;;5153267;23;20817;-82
2021/08/18 02:16:29;;;;;;;17.73;8.80;;;13.90;98.30;;;;;;5153832;23;20443;-83
2021/08/18 02:18:33;;;;;;;19.73;9.63;;;13.80;98.30;;;;;;5153745;23;20432;-82
2021/08/18 02:20:38;;;;;;;12.30;7.57;;;13.80;98.30;;;;;;5145629;23;20464;-82
2021/08/18 02:22:42;;;;;;;14.40;8.90;;;13.80;98.30;;;;;;5153542;23;20491;-84
2021/08/18 02:24:45;;;;;;;19.40;9.50;;;13.80;98.30;;;;;;5153703;23;20815;-83
2021/08/18 02:26:47;;;;;;;16.07;8.57;;;13.80;98.30;;;;;;5154462;23;20429;-83
2021/08/18 02:28:50;;;;;;;20.13;8.50;;;13.80;98.30;;;;;;5153990;23;20421;-82
2021/08/18 02:30:53;;;;;;;19.50;9.17;;;13.70;98.30;;;;;;5153824;23;20530;-82
2021/08/18 02:32:58;;;;;;;16.23;9.00;;;13.70;98.30;;;;;;5153638;23;20505;-84
2021/08/18 02:35:01;;;;;;;17.20;8.50;;;13.70;98.30;;;;;;5153186;23;20508;-82
2021/08/18 02:37:04;;;;;;;12.90;7.73;;;13.70;98.30;;;;;;5153400;23;20508;-83
2021/08/18 02:39:08;;;;;;;16.60;8.00;;;13.70;98.30;;;;;;5153255;23;20435;-82
2021/08/18 02:41:11;;;;;;;15.77;8.40;;;13.70;98.30;;;;;;5153634;23;20445;-82
2021/08/18 02:43:14;;;;;;;15.80;8.70;;;13.60;98.30;;;;;;5153302;23;20440;-82
2021/08/18 02:45:17;;;;;;;14.13;8.37;;;13.60;98.30;;;;;;5152955;23;20914;-83
2021/08/18 02:47:20;;;;;;;13.80;8.73;;;13.60;98.30;;;;;;5153381;23;20939;-83
2021/08/18 02:49:25;;;;;;;13.83;8.40;;;13.60;98.30;;;;;;5153711;23;20805;-83
2021/08/18 02:51:28;;;;;;;16.53;9.30;;;13.50;98.30;;;;;;5153222;23;20439;-83
2021/08/18 02:53:31;;;;;;;18.20;8.57;;;13.60;98.30;;;;;;5153130;23;20421;-82
2021/08/18 02:55:34;;;;;;;17.33;8.47;;;13.50;98.30;;;;;;5145427;23;20425;-82
2021/08/18 02:57:37;;;;;;;18.20;8.23;;;13.50;98.30;;;;;;5153318;23;20436;-82
2021/08/18 02:59:40;;;;;;;20.93;10.17;;;13.50;98.30;;;;;;5144710;23;20429;-82
2021/08/18 03:01:43;;;;;;;13.60;9.10;;;13.50;98.30;;;;;;5153249;23;21045;-83
2021/08/18 03:03:46;;;;;;;16.47;8.77;;;13.50;98.30;;;;;;5152506;23;20557;-83
2021/08/18 03:05:51;;;;;;;17.50;9.90;;;13.40;98.30;;;;;;5153270;23;20504;-82
2021/08/18 03:07:53;;;;;;;18.50;10.03;;;13.40;98.30;;;;;;5152652;23;20416;-82
2021/08/18 03:09:57;;;;;;;14.30;8.60;;;13.40;98.30;;;;;;5153253;23;20431;-82
2021/08/18 03:11:59;;;;;;;16.40;8.83;;;13.40;98.30;;;;;;5153063;23;20541;-82
2021/08/18 03:14:03;;;;;;;15.30;8.67;;;13.40;98.30;;;;;;5152574;23;20417;-82
2021/08/18 03:16:06;;;;;;;16.40;9.37;;;13.40;98.30;;;;;;5153330;23;20420;-82
2021/08/18 03:18:09;;;;;;;13.90;8.67;;;13.40;98.30;;;;;;5152633;23;20424;-82
2021/08/18 03:20:12;;;;;;;15.60;9.00;;;13.40;98.30;;;;;;5150758;23;20837;-82
2021/08/18 03:22:17;;;;;;;16.43;9.30;;;13.40;98.30;;;;;;5152880;23;20448;-82
2021/08/18 03:24:20;;;;;;;14.90;8.53;;;13.30;98.30;;;;;;5152914;23;21009;-83
2021/08/18 03:26:23;;;;;;;17.97;8.17;;;13.40;98.30;;;;;;5144239;23;20433;-82
2021/08/18 03:28:26;;;;;;;16.37;8.13;;;13.30;98.30;;;;;;5152384;23;20580;-82
2021/08/18 03:30:29;;;;;;;13.43;8.50;;;13.30;98.30;;;;;;5151968;23;20431;-83
2021/08/18 03:32:32;;;;;;;19.23;9.83;;;13.30;98.30;;;;;;5142796;23;20499;-83
2021/08/18 03:34:35;;;;;;;15.43;9.53;;;13.30;98.30;;;;;;5152063;23;20445;-82
2021/08/18 03:36:38;;;;;;;12.47;8.67;;;13.30;98.30;;;;;;5151714;23;21196;-82
2021/08/18 03:38:43;;;;;;;13.77;9.33;;;13.30;98.30;;;;;;5144144;23;20429;-83
2021/08/18 03:40:46;;;;;;;19.87;10.00;;;13.30;98.30;;;;;;5152329;23;20425;-83
2021/08/18 03:42:49;;;;;;;20.27;10.23;;;13.30;98.30;;;;;;5152410;23;20425;-83
2021/08/18 03:44:52;;;;;;;21.10;11.03;;;13.30;98.30;;;;;;5144224;23;20433;-83
2021/08/18 03:46:55;;;;;;;19.17;11.20;;;13.30;98.30;;;;;;5152714;23;20429;-82
2021/08/18 03:49:00;;;;;;;16.50;10.63;;;13.20;98.30;;;;;;5152026;23;20428;-82
2021/08/18 03:51:04;;;;;;;17.60;11.17;;;13.30;98.30;;;;;;5144666;23;20513;-82
2021/08/18 03:53:07;;;;;;;21.30;10.50;;;13.30;98.30;;;;;;5153334;23;20417;-83
2021/08/18 03:55:12;;;;;;;18.20;10.93;;;13.30;98.30;;;;;;5144815;23;20433;-82
2021/08/18 03:57:15;;;;;;;19.57;11.30;;;13.30;98.30;;;;;;5152572;23;20445;-82
2021/08/18 03:59:18;;;;;;;22.60;11.10;;;13.30;98.30;;;;;;5153162;23;20425;-83
2021/08/18 12:37:58;;;;;;;9.03;6.40;;;20.40;98.30;;;;;;5134385;23;20491;-84
2021/08/18 12:40:06;;;;;;;10.03;6.13;;;21.00;98.30;;;;;;5149663;23;20432;-81
2021/08/18 12:42:12;;;;;;;9.40;5.40;;;21.50;98.30;;;;;;5149843;23;20980;-81
2021/08/18 12:44:16;;;;;;;8.47;6.47;;;21.00;98.30;;;;;;5149693;23;20453;-81
2021/08/18 12:46:24;;;;;;;9.37;5.77;;;20.70;98.30;;;;;;5124519;23;20429;-81
2021/08/18 12:48:32;;;;;;;9.37;6.50;;;20.30;98.30;;;;;;5124994;23;20426;-81
2021/08/18 16:12:01;;;;;;;8.53;7.10;;;19.00;98.30;;;;;;4706414;24;20970;-83
2021/08/18 16:14:05;;;;;;;9.23;7.40;;;19.00;98.30;;;;;;4841270;24;20444;-83
2021/08/18 16:16:12;;;;;;;6.67;5.60;;;19.00;98.30;;;;;;4922491;23;20774;-82
2021/08/18 16:18:19;;;;;;;6.57;5.97;;;19.00;98.30;;;;;;4965523;23;20444;-83
2021/08/18 16:20:22;;;;;;;9.80;7.00;;;19.00;98.30;;;;;;5050661;23;20425;-83
2021/08/18 16:22:33;;;;;;;8.10;5.60;;;19.00;98.30;;;;;;5050690;23;20462;-83
2021/08/18 16:24:44;;;;;;;7.67;5.97;;;19.00;98.30;;;;;;5050204;23;20520;-83
2021/08/18 16:27:05;;;;;;;7.60;6.30;;;19.00;98.30;;;;;;5050810;23;20452;-83
2021/08/18 16:29:18;;;;;;;6.83;6.23;;;19.10;98.30;;;;;;5102602;23;20434;-83
2021/08/18 16:31:36;;;;;;;11.07;6.47;;;19.00;98.30;;;;;;5117353;23;20426;-83
2021/08/18 16:33:44;;;;;;;7.57;6.87;;;18.90;98.30;;;;;;5124648;23;20425;-83
2021/08/18 16:35:49;;;;;;;9.37;6.97;;;18.90;98.30;;;;;;5126412;23;20425;-83
2021/08/18 16:38:01;;;;;;;9.23;6.80;;;18.80;98.30;;;;;;5127155;23;20529;-83
2021/08/18 16:40:14;;;;;;;7.73;6.73;;;18.80;98.30;;;;;;5127076;23;20922;-83
2021/08/18 16:42:27;;;;;;;11.00;7.30;;;18.80;98.30;;;;;;5117376;23;20426;-83
2021/08/18 16:44:50;;;;;;;7.00;6.33;;;18.70;98.30;;;;;;5116783;23;20862;-83
2021/08/18 16:47:28;;;;;;;9.57;6.47;;;18.70;98.30;;;;;;5128164;23;20453;-83
2021/08/18 16:49:40;;;;;;;8.13;7.33;;;18.60;98.30;;;;;;5119350;23;20548;-82
2021/08/18 16:51:51;;;;;;;8.97;6.77;;;18.60;98.30;;;;;;5127739;23;20433;-83
2021/08/18 16:53:59;;;;;;;9.13;7.40;;;18.60;98.30;;;;;;5119278;23;20417;-83
2021/08/18 16:56:03;;;;;;;9.60;7.10;;;18.60;98.30;;;;;;5128170;23;20425;-83
2021/08/18 16:58:27;;;;;;;8.60;7.57;;;18.60;98.30;;;;;;5129346;23;20508;-83
2021/08/18 17:00:32;;;;;;;15.23;8.23;;;18.60;98.30;;;;;;5120656;23;20417;-83
2021/08/18 17:02:38;;;;;;;10.27;7.27;;;18.60;98.30;;;;;;5119782;23;20413;-83
2021/08/18 17:04:42;;;;;;;11.57;7.80;;;18.50;98.30;;;;;;5119480;23;20449;-83
2021/08/18 17:06:44;;;;;;;13.93;7.63;;;18.40;98.30;;;;;;5120246;23;20449;-82
2021/08/18 17:08:47;;;;;;;10.37;8.37;;;18.30;98.30;;;;;;5120529;23;20465;-83
2021/08/18 17:10:51;;;;;;;12.37;8.03;;;18.30;98.30;;;;;;5119618;23;20436;-83
2021/08/18 17:12:54;;;;;;;13.53;8.20;;;18.30;98.30;;;;;;5127731;23;20525;-83
2021/08/18 17:15:00;;;;;;;10.83;8.10;;;18.30;98.30;;;;;;5118959;23;20922;-84
2021/08/18 17:17:05;;;;;;;13.93;10.23;;;18.30;98.30;;;;;;5120073;23;20457;-82
2021/08/18 17:19:08;;;;;;;13.80;9.53;;;18.20;98.30;;;;;;5122148;23;20525;-83
2021/08/18 17:21:14;;;;;;;15.83;10.70;;;18.20;98.30;;;;;;5122772;23;20511;-83
2021/08/18 17:23:17;;;;;;;12.70;11.23;;;18.20;98.30;;;;;;5131397;23;21069;-82
2021/08/18 17:25:20;;;;;;;13.10;8.07;;;18.20;98.30;;;;;;5132486;23;20445;-82
2021/08/18 17:27:23;;;;;;;16.70;10.27;;;18.20;98.30;;;;;;5129082;23;20501;-82
2021/08/18 17:29:27;;;;;;;10.73;8.63;;;18.20;98.30;;;;;;5121603;23;20815;-83
2021/08/18 17:31:31;;;;;;;14.57;9.47;;;18.20;98.30;;;;;;5120167;23;20441;-82
2021/08/18 17:33:37;;;;;;;10.70;8.47;;;18.20;98.30;;;;;;5119545;23;20508;-82
2021/08/18 17:35:44;;;;;;;10.53;9.30;;;18.10;98.30;;;;;;5127485;23;20795;-83
2021/08/18 17:37:48;;;;;;;13.53;9.20;;;18.00;98.30;;;;;;5119447;23;20467;-82
2021/08/18 17:39:55;;;;;;;14.13;9.77;;;18.00;98.30;;;;;;5129014;23;20406;-83
2021/08/18 17:41:58;;;;;;;12.27;10.10;;;18.00;98.30;;;;;;5127513;23;20437;-83
2021/08/18 17:44:01;;;;;;;13.80;10.20;;;17.90;98.30;;;;;;5125913;23;20480;-82
2021/08/18 17:46:04;;;;;;;17.33;11.00;;;17.90;98.30;;;;;;5119242;23;20459;-82
2021/08/18 17:48:09;;;;;;;12.53;9.33;;;17.80;98.30;;;;;;5119361;23;20437;-82
2021/08/18 17:50:13;;;;;;;14.20;9.77;;;17.80;98.30;;;;;;5119710;23;20418;-83
2021/08/18 17:52:16;;;;;;;14.30;9.90;;;17.70;98.30;;;;;;5128153;23;20516;-82
2021/08/18 17:54:19;;;;;;;15.83;10.73;;;17.70;98.30;;;;;;5126507;23;20504;-83
2021/08/18 17:56:23;;;;;;;13.70;10.93;;;17.60;98.30;;;;;;5118733;23;20449;-83
2021/08/18 17:58:27;;;;;;;13.03;10.83;;;17.60;98.30;;;;;;5127347;23;20418;-82
2021/08/18 18:00:32;;;;;;;13.03;10.40;;;17.60;98.30;;;;;;5127761;23;20939;-82
2021/08/18 18:02:36;;;;;;;11.90;9.57;;;17.60;98.30;;;;;;5119651;23;20418;-81
2021/08/18 18:04:40;;;;;;;15.73;11.27;;;17.60;98.30;;;;;;5118744;23;20780;-82
2021/08/18 18:06:44;;;;;;;18.10;11.07;;;17.50;98.30;;;;;;5120606;23;20964;-81
2021/08/18 18:08:47;;;;;;;13.37;10.20;;;17.60;98.30;;;;;;5121361;23;20957;-82
2021/08/18 18:11:14;;;;;;;12.87;10.83;;;17.60;98.30;;;;;;5122645;23;20440;-82
2021/08/18 18:13:31;;;;;;;15.93;11.70;;;17.50;98.30;;;;;;5129075;23;20462;-82
2021/08/18 18:15:37;;;;;;;13.83;9.83;;;17.50;98.30;;;;;;5120998;23;20414;-82
2021/08/18 18:17:40;;;;;;;17.47;11.13;;;17.50;98.30;;;;;;5129339;23;20446;-82
2021/08/18 18:19:46;;;;;;;15.50;10.60;;;17.50;98.30;;;;;;5129850;23;20472;-82
2021/08/18 18:21:52;;;;;;;15.60;11.60;;;17.50;98.30;;;;;;5130066;23;20434;-82
2021/08/18 18:23:55;;;;;;;16.80;11.30;;;17.50;98.30;;;;;;5128850;23;20406;-82
2021/08/18 18:26:00;;;;;;;16.57;10.70;;;17.40;98.30;;;;;;5120392;23;20454;-81
2021/08/18 18:28:05;;;;;;;14.40;10.70;;;17.40;98.30;;;;;;5129944;23;20961;-82
2021/08/18 18:30:11;;;;;;;12.10;10.37;;;17.40;98.30;;;;;;5128684;23;21002;-82
2021/08/18 18:32:14;;;;;;;14.47;10.00;;;17.40;98.30;;;;;;5119792;23;20429;-82
2021/08/18 18:34:18;;;;;;;14.57;10.20;;;17.40;98.30;;;;;;5119920;23;20461;-82
2021/08/18 18:36:21;;;;;;;15.53;10.10;;;17.30;98.30;;;;;;5119444;23;20579;-82
2021/08/18 18:38:25;;;;;;;14.17;10.87;;;17.30;98.30;;;;;;5120586;23;20472;-82
2021/08/18 18:40:28;;;;;;;14.33;10.10;;;17.30;98.30;;;;;;5119065;23;20508;-82
2021/08/18 18:42:31;;;;;;;12.63;11.27;;;17.30;98.30;;;;;;5124170;23;20422;-84
2021/08/18 18:44:35;;;;;;;15.37;11.30;;;17.20;98.30;;;;;;5126376;23;20460;-84
2021/08/18 18:46:39;;;;;;;15.33;9.80;;;17.20;98.30;;;;;;5127654;23;20450;-83
2021/08/18 18:48:42;;;;;;;14.60;10.70;;;17.20;98.30;;;;;;5126818;23;20440;-84
2021/08/18 18:50:45;;;;;;;15.73;10.97;;;17.20;98.30;;;;;;5128784;23;21115;-83
2021/08/18 18:52:48;;;;;;;13.40;10.40;;;17.20;98.30;;;;;;5118465;23;20426;-84
2021/08/18 18:54:54;;;;;;;18.57;11.30;;;17.20;98.30;;;;;;5126585;23;20428;-83
2021/08/18 18:56:57;;;;;;;18.70;10.40;;;17.10;98.30;;;;;;5128041;23;20496;-83
2021/08/18 18:59:00;;;;;;;17.40;10.70;;;17.10;98.30;;;;;;5127859;23;20430;-83
2021/08/18 19:01:05;;;;;;;14.57;9.03;;;17.20;98.30;;;;;;5127979;23;20436;-83
2021/08/18 19:03:10;;;;;;;13.03;10.07;;;17.10;98.30;;;;;;5120443;23;20508;-83
2021/08/18 19:05:18;;;;;;;13.27;9.83;;;17.20;98.30;;;;;;5128588;23;20446;-83
2021/08/18 19:07:21;;;;;;;16.13;10.23;;;17.10;98.30;;;;;;5120116;23;20450;-83
2021/08/18 19:09:24;;;;;;;14.10;9.93;;;17.10;98.30;;;;;;5129554;23;20418;-83
2021/08/18 19:11:29;;;;;;;11.30;9.30;;;17.10;98.30;;;;;;5120888;23;20823;-84
2021/08/18 19:13:32;;;;;;;12.03;9.03;;;17.10;98.30;;;;;;5126099;23;20452;-84
2021/08/18 19:15:38;;;;;;;13.83;9.40;;;17.10;98.30;;;;;;5118754;23;20440;-84
2021/08/18 19:17:41;;;;;;;9.23;8.20;;;17.10;98.30;;;;;;5126237;23;20467;-83
2021/08/18 19:19:46;;;;;;;13.57;9.10;;;17.10;98.30;;;;;;5131022;23;20428;-83
2021/08/18 19:21:49;;;;;;;14.37;8.43;;;17.10;98.30;;;;;;5127553;23;20418;-83
2021/08/18 19:23:52;;;;;;;13.60;8.80;;;17.10;98.30;;;;;;5127405;23;20449;-84
2021/08/18 19:25:56;;;;;;;13.40;9.50;;;17.10;98.30;;;;;;5119084;23;20453;-84
2021/08/18 19:28:02;;;;;;;12.63;9.10;;;17.10;98.30;;;;;;5127025;23;20516;-84
2021/08/18 19:30:09;;;;;;;12.33;9.50;;;17.10;98.30;;;;;;5125550;23;20892;-84
2021/08/18 19:32:12;;;;;;;13.17;9.90;;;17.10;98.30;;;;;;5117098;23;20415;-84
2021/08/18 19:34:15;;;;;;;11.83;10.30;;;17.10;98.30;;;;;;5116656;23;20434;-84
2021/08/18 19:36:22;;;;;;;15.80;10.03;;;17.10;98.30;;;;;;5126230;23;20445;-84
2021/08/18 19:38:25;;;;;;;18.67;9.63;;;17.00;98.30;;;;;;5119374;23;20493;-84
2021/08/18 19:40:28;;;;;;;16.80;9.50;;;17.00;98.30;;;;;;5126687;23;20861;-84
2021/08/18 19:42:32;;;;;;;13.03;9.93;;;17.00;98.30;;;;;;5126765;23;20806;-84
2021/08/18 19:44:37;;;;;;;15.63;10.77;;;17.00;98.30;;;;;;5126043;23;20440;-84
2021/08/18 19:46:41;;;;;;;16.97;10.33;;;17.00;98.30;;;;;;5117274;23;20450;-83
2021/08/18 19:48:44;;;;;;;13.90;10.10;;;17.00;98.30;;;;;;5126900;23;20491;-83
2021/08/18 19:50:47;;;;;;;13.37;10.80;;;17.00;98.30;;;;;;5118023;23;20434;-83
2021/08/18 19:52:50;;;;;;;11.97;9.67;;;17.00;98.30;;;;;;5125575;23;20433;-83
2021/08/18 19:54:53;;;;;;;14.77;9.50;;;17.00;98.30;;;;;;5125929;23;20429;-83
2021/08/18 19:56:58;;;;;;;14.23;11.10;;;17.00;98.30;;;;;;5118733;23;20452;-83
2021/08/18 19:59:01;;;;;;;18.90;10.03;;;16.90;98.30;;;;;;5127175;23;20457;-83
2021/08/18 20:01:06;;;;;;;19.17;11.63;;;16.90;98.30;;;;;;5117657;23;20430;-84
2021/08/18 20:03:11;;;;;;;18.57;13.70;;;16.90;98.30;;;;;;5126267;23;20658;-83
2021/08/18 20:05:17;;;;;;;12.80;10.40;;;16.90;98.30;;;;;;5126173;23;20813;-84
2021/08/18 20:07:20;;;;;;;11.53;10.23;;;16.80;98.30;;;;;;5119407;23;20524;-83
2021/08/18 20:09:24;;;;;;;12.50;9.13;;;16.80;98.30;;;;;;5119067;23;20437;-84
2021/08/18 20:11:29;;;;;;;12.27;10.13;;;16.80;98.30;;;;;;5126554;23;20433;-83
2021/08/18 20:13:35;;;;;;;15.57;9.90;;;16.80;98.30;;;;;;5127454;23;20425;-84
2021/08/18 20:15:38;;;;;;;17.73;10.47;;;16.70;98.30;;;;;;5118782;23;20422;-84
2021/08/18 20:17:49;;;;;;;13.87;10.57;;;16.70;98.30;;;;;;5119568;23;20450;-84
2021/08/18 20:19:52;;;;;;;19.97;10.90;;;16.70;98.30;;;;;;5127623;23;20490;-84
2021/08/18 20:22:01;;;;;;;16.37;9.97;;;16.70;98.30;;;;;;5126753;23;20426;-84
2021/08/18 20:24:07;;;;;;;13.70;9.03;;;16.70;98.30;;;;;;5125880;23;20990;-84
2021/08/18 20:26:10;;;;;;;12.93;8.50;;;16.70;98.30;;;;;;5127296;23;20461;-82
2021/08/18 20:28:13;;;;;;;12.60;9.40;;;16.70;98.30;;;;;;5127437;23;20437;-83
2021/08/18 20:30:16;;;;;;;9.63;8.63;;;16.70;98.30;;;;;;5118462;23;20429;-83
2021/08/18 20:32:19;;;;;;;16.03;10.23;;;16.70;98.30;;;;;;5125830;23;20422;-82
2021/08/18 20:34:23;;;;;;;14.20;8.97;;;16.70;98.30;;;;;;5117115;23;20895;-82
2021/08/18 20:36:28;;;;;;;10.03;9.00;;;16.70;98.30;;;;;;5118363;23;20449;-82
2021/08/18 20:38:31;;;;;;;9.97;8.97;;;16.70;98.30;;;;;;5118600;23;20481;-82
2021/08/18 20:40:34;;;;;;;11.80;9.40;;;16.70;98.30;;;;;;5118931;23;20951;-83
2021/08/18 20:42:37;;;;;;;13.17;9.00;;;16.70;98.30;;;;;;5125821;23;20428;-83
2021/08/18 20:44:40;;;;;;;10.83;8.47;;;16.70;98.30;;;;;;5124917;23;20429;-83
2021/08/18 20:46:44;;;;;;;9.57;8.53;;;16.70;98.30;;;;;;5125464;23;20468;-82
2021/08/18 20:48:47;;;;;;;10.97;8.87;;;16.70;98.30;;;;;;5126431;23;20468;-82
2021/08/18 20:50:51;;;;;;;15.53;9.67;;;16.70;98.30;;;;;;5125582;23;20513;-82
2021/08/18 20:52:54;;;;;;;10.70;8.73;;;16.70;98.30;;;;;;5117905;23;20437;-82
2021/08/18 20:54:58;;;;;;;12.20;8.80;;;16.70;98.30;;;;;;5115858;23;20513;-83
2021/08/18 20:57:01;;;;;;;11.67;8.60;;;16.70;98.30;;;;;;5118291;23;20446;-83
2021/08/18 20:59:05;;;;;;;9.97;9.07;;;16.70;98.30;;;;;;5126025;23;20422;-82
2021/08/18 21:01:08;;;;;;;10.27;8.47;;;16.60;98.30;;;;;;5126530;23;20450;-82
2021/08/18 21:03:11;;;;;;;12.77;9.70;;;16.60;98.30;;;;;;5126743;23;20422;-82
2021/08/18 21:05:17;;;;;;;12.37;8.50;;;16.60;98.30;;;;;;5117955;23;20434;-83
2021/08/18 21:07:22;;;;;;;10.20;8.83;;;16.60;98.30;;;;;;5125326;23;20445;-82
2021/08/18 21:09:27;;;;;;;10.13;9.03;;;16.60;98.30;;;;;;5126123;23;20449;-84
2021/08/18 21:11:30;;;;;;;11.97;9.40;;;16.60;98.30;;;;;;5119929;23;20449;-82
2021/08/18 21:13:33;;;;;;;14.10;9.50;;;16.60;98.30;;;;;;5116389;23;20517;-84
2021/08/18 21:15:36;;;;;;;11.33;8.80;;;16.60;98.30;;;;;;5122545;23;20819;-83
2021/08/18 21:17:39;;;;;;;17.50;10.80;;;16.60;98.30;;;;;;5123576;23;20782;-83
2021/08/18 21:19:43;;;;;;;10.40;9.03;;;16.60;98.30;;;;;;5116553;23;20760;-83
2021/08/18 21:21:46;;;;;;;10.97;9.80;;;16.60;98.30;;;;;;5124813;23;20501;-84
2021/08/18 21:23:50;;;;;;;12.00;9.20;;;16.50;98.30;;;;;;5114799;23;20426;-83
2021/08/18 21:25:53;;;;;;;11.00;9.43;;;16.50;98.30;;;;;;5116007;23;20514;-83
2021/08/18 21:27:56;;;;;;;12.77;9.07;;;16.50;98.30;;;;;;5116013;23;20532;-83
2021/08/18 21:29:59;;;;;;;14.13;9.43;;;16.50;98.30;;;;;;5115168;23;20433;-84
2021/08/18 21:32:03;;;;;;;11.60;9.20;;;16.50;98.30;;;;;;5118140;23;20430;-83
2021/08/18 21:34:06;;;;;;;13.03;9.60;;;16.50;98.30;;;;;;5126693;23;20873;-82
2021/08/18 21:36:09;;;;;;;11.53;9.30;;;16.50;98.30;;;;;;5127028;23;20488;-82
2021/08/18 21:38:12;;;;;;;11.30;9.30;;;16.50;98.30;;;;;;5126689;23;20426;-82
2021/08/18 21:40:17;;;;;;;11.50;9.90;;;16.50;98.30;;;;;;5117773;23;20447;-82
2021/08/18 21:42:19;;;;;;;11.83;10.27;;;16.50;98.30;;;;;;5125919;23;20417;-82
2021/08/18 21:44:22;;;;;;;11.53;9.60;;;16.50;98.30;;;;;;5125867;23;20422;-82
